Time;durP1;ratioP1;P1;durP2;ratioP2;P2;SDS_P1;SDS_P2;PMS_P1;PMS_P2;Temp;Humidity;BMP_temperature;BMP_pressure;BME280_temperature;BME280_humidity;BME280_pressure;Samples;Min_cycle;Max_cycle;Signal;HPM_P1;HPM_P2
2022/09/21 00:01:11;;;;;;;4.47;4.00;;;7.30;99.90;;;;;;5002417;28;20446;-92
2022/09/21 00:03:40;;;;;;;5.63;4.43;;;7.30;99.90;;;;;;5003368;28;21127;-90
2022/09/21 00:06:08;;;;;;;4.60;4.20;;;7.30;99.90;;;;;;4989034;28;20454;-90
2022/09/21 00:08:34;;;;;;;5.13;4.13;;;7.20;99.90;;;;;;5006589;28;20467;-90
2022/09/21 00:11:00;;;;;;;4.27;3.87;;;7.30;99.90;;;;;;4985546;28;20439;-89
2022/09/21 00:13:27;;;;;;;4.70;4.07;;;7.30;99.90;;;;;;4982124;28;20243;-90
2022/09/21 00:15:57;;;;;;;5.57;4.00;;;7.30;99.90;;;;;;4987119;28;21213;-90
2022/09/21 00:18:23;;;;;;;4.47;3.43;;;7.20;99.90;;;;;;5008401;28;20489;-90
2022/09/21 00:20:51;;;;;;;4.87;3.57;;;7.00;99.90;;;;;;5004340;28;20442;-90
2022/09/21 00:23:17;;;;;;;4.47;3.90;;;7.10;99.90;;;;;;4990957;28;20521;-90
2022/09/21 00:25:45;;;;;;;4.97;4.07;;;7.10;99.90;;;;;;4984017;28;20633;-89
2022/09/21 00:28:19;;;;;;;5.10;4.60;;;7.10;99.90;;;;;;4991842;28;20439;-90
2022/09/21 00:30:50;;;;;;;4.20;3.80;;;7.10;99.90;;;;;;4987306;28;20479;-90
2022/09/21 00:33:19;;;;;;;8.77;5.37;;;7.00;99.90;;;;;;4998884;28;20483;-91
2022/09/21 00:35:56;;;;;;;3.87;3.57;;;6.90;99.90;;;;;;4989463;28;20454;-89
2022/09/21 00:38:42;;;;;;;6.90;4.20;;;6.90;99.90;;;;;;5004209;28;20473;-90
2022/09/21 00:41:12;;;;;;;4.10;3.80;;;6.90;99.90;;;;;;4993144;28;20513;-89
2022/09/21 00:43:43;;;;;;;4.23;3.73;;;6.80;99.90;;;;;;5004242;28;20454;-92
2022/09/21 00:46:25;;;;;;;4.87;4.20;;;6.80;99.90;;;;;;4988976;28;20446;-90
2022/09/21 00:48:50;;;;;;;5.47;3.80;;;6.80;99.90;;;;;;4990435;28;21033;-91
2022/09/21 00:51:16;;;;;;;5.40;4.30;;;6.80;99.90;;;;;;4990655;28;20952;-90
2022/09/21 00:53:42;;;;;;;4.20;3.80;;;6.80;99.90;;;;;;4986583;28;20273;-89
2022/09/21 00:56:10;;;;;;;5.00;4.47;;;6.70;99.90;;;;;;4982276;28;20184;-89
2022/09/21 00:58:44;;;;;;;4.77;4.30;;;6.80;99.90;;;;;;4982641;28;20544;-90
2022/09/21 01:01:17;;;;;;;5.57;4.20;;;6.80;99.90;;;;;;4986550;28;20435;-89
2022/09/21 01:03:57;;;;;;;4.83;4.10;;;6.70;99.90;;;;;;4982614;28;20451;-90
2022/09/21 01:06:25;;;;;;;4.37;4.03;;;6.70;99.90;;;;;;5005262;28;20938;-90
2022/09/21 01:08:54;;;;;;;4.67;4.20;;;6.70;99.90;;;;;;4983246;28;20459;-90
2022/09/21 01:11:53;;;;;;;4.43;4.03;;;6.60;99.90;;;;;;4985762;28;20446;-91
2022/09/21 01:14:30;;;;;;;4.73;4.23;;;6.60;99.90;;;;;;4983594;28;20708;-91
2022/09/21 01:17:33;;;;;;;5.20;4.60;;;6.50;99.90;;;;;;5004542;28;20440;-90
2022/09/21 01:20:49;;;;;;;4.53;3.80;;;6.50;99.90;;;;;;4928101;28;20873;-89
2022/09/21 01:23:22;;;;;;;4.80;4.40;;;6.60;99.90;;;;;;4929166;28;20510;-90
2022/09/21 01:26:13;;;;;;;5.40;4.50;;;6.60;99.90;;;;;;4923096;28;20489;-89
2022/09/21 01:29:11;;;;;;;5.43;4.90;;;6.60;99.90;;;;;;4966521;28;20623;-90
2022/09/21 01:32:01;;;;;;;4.73;4.27;;;6.70;99.90;;;;;;4957469;28;20443;-89
2022/09/21 01:34:30;;;;;;;5.30;3.80;;;6.60;99.90;;;;;;4984569;28;20573;-90
2022/09/21 01:36:58;;;;;;;4.20;3.90;;;6.60;99.90;;;;;;4981832;28;20427;-89
2022/09/21 01:39:25;;;;;;;3.70;3.40;;;6.60;99.90;;;;;;4981004;28;20453;-89
2022/09/21 01:41:53;;;;;;;4.57;4.17;;;6.50;99.90;;;;;;5000015;28;24393;-89
2022/09/21 01:44:22;;;;;;;4.93;4.47;;;6.50;99.90;;;;;;4988385;28;20804;-90
2022/09/21 01:46:48;;;;;;;4.47;4.07;;;6.50;99.90;;;;;;4998384;28;24644;-90
2022/09/21 01:49:20;;;;;;;4.80;4.37;;;6.50;99.90;;;;;;4986023;28;20485;-90
2022/09/21 01:52:01;;;;;;;4.67;4.23;;;6.40;99.90;;;;;;4983238;28;20443;-89
2022/09/21 01:54:42;;;;;;;5.70;4.60;;;6.40;99.90;;;;;;4984492;28;20522;-90
2022/09/21 01:57:24;;;;;;;5.03;4.47;;;6.40;99.90;;;;;;4968164;28;20451;-89
2022/09/21 01:59:57;;;;;;;6.80;4.70;;;6.40;99.90;;;;;;4998582;28;21049;-90
2022/09/21 02:02:45;;;;;;;4.70;4.30;;;6.30;99.90;;;;;;5001276;28;20446;-89
2022/09/21 02:05:15;;;;;;;5.00;4.40;;;6.30;99.90;;;;;;4983219;28;20493;-92
2022/09/21 02:07:41;;;;;;;7.37;5.70;;;6.30;99.90;;;;;;4983306;28;20477;-87
2022/09/21 02:10:10;;;;;;;4.87;4.47;;;6.30;99.90;;;;;;4985733;28;20583;-89
2022/09/21 02:12:35;;;;;;;5.43;4.93;;;6.30;99.90;;;;;;5004723;28;20472;-88
2022/09/21 02:15:02;;;;;;;5.90;5.03;;;6.30;99.90;;;;;;5005138;28;20466;-89
2022/09/21 02:17:45;;;;;;;7.17;6.47;;;6.30;99.90;;;;;;4984170;28;20223;-89
2022/09/21 02:20:21;;;;;;;4.53;4.13;;;6.20;99.90;;;;;;4979667;28;20964;-89
2022/09/21 02:23:02;;;;;;;6.33;4.40;;;6.10;99.90;;;;;;4991619;28;21115;-88
2022/09/21 02:25:34;;;;;;;5.00;4.47;;;6.10;99.90;;;;;;5009776;28;20697;-89
2022/09/21 02:28:56;;;;;;;5.20;4.70;;;6.00;99.90;;;;;;4989522;28;20975;-89
2022/09/21 02:31:41;;;;;;;5.40;4.90;;;6.00;99.90;;;;;;4901152;29;20440;-90
2022/09/21 02:34:36;;;;;;;5.13;4.60;;;6.00;99.90;;;;;;5017027;28;20491;-89
2022/09/21 02:37:18;;;;;;;5.73;4.73;;;6.00;99.90;;;;;;4995808;28;20431;-89
2022/09/21 02:40:06;;;;;;;5.37;4.83;;;6.00;99.90;;;;;;4999318;28;20443;-89
2022/09/21 02:42:37;;;;;;;4.43;4.13;;;5.90;99.90;;;;;;4997498;28;20484;-89
2022/09/21 02:45:07;;;;;;;4.10;3.80;;;5.90;99.90;;;;;;5012164;28;20436;-90
2022/09/21 02:47:38;;;;;;;3.70;3.40;;;5.70;99.90;;;;;;4996462;28;20448;-89
2022/09/21 02:50:19;;;;;;;4.60;4.10;;;5.80;99.90;;;;;;4995757;28;20444;-91
2022/09/21 02:52:45;;;;;;;5.20;4.70;;;5.90;99.90;;;;;;4999461;28;20545;-91
2022/09/21 02:55:14;;;;;;;5.50;4.73;;;5.90;99.90;;;;;;5000907;28;20563;-90
2022/09/21 02:57:40;;;;;;;4.70;4.30;;;5.90;99.90;;;;;;4997929;28;20191;-88
2022/09/21 03:00:14;;;;;;;5.10;4.60;;;5.90;99.90;;;;;;4999248;28;20493;-87
2022/09/21 03:02:42;;;;;;;5.43;4.93;;;5.80;99.90;;;;;;4996371;28;20449;-88
2022/09/21 03:05:19;;;;;;;9.73;6.73;;;5.80;99.90;;;;;;5012773;28;20533;-90
2022/09/21 03:07:44;;;;;;;10.50;7.40;;;5.90;99.90;;;;;;4999211;28;20454;-89
2022/09/21 03:10:10;;;;;;;12.70;8.77;;;6.00;99.90;;;;;;4997487;28;20431;-88
2022/09/21 03:12:36;;;;;;;15.37;8.93;;;6.10;99.90;;;;;;5003460;28;20224;-89
2022/09/21 03:15:02;;;;;;;41.30;10.93;;;6.20;99.90;;;;;;4996465;28;20194;-90
2022/09/21 03:17:28;;;;;;;49.73;10.43;;;6.10;99.90;;;;;;4998031;28;20181;-89
2022/09/21 03:19:54;;;;;;;21.93;9.87;;;5.80;99.90;;;;;;5000650;28;20442;-90
2022/09/21 03:22:23;;;;;;;26.07;9.00;;;5.80;99.90;;;;;;4996924;28;20192;-89
2022/09/21 03:24:49;;;;;;;10.37;7.43;;;5.60;99.90;;;;;;4998334;28;20497;-88
2022/09/21 03:27:17;;;;;;;10.53;8.57;;;5.50;99.90;;;;;;5001280;28;20440;-88
2022/09/21 03:29:56;;;;;;;9.40;7.97;;;5.50;99.90;;;;;;5000503;28;21089;-87
2022/09/21 03:32:25;;;;;;;8.03;7.23;;;5.60;99.90;;;;;;4999232;28;20446;-89
2022/09/21 03:34:59;;;;;;;8.43;6.37;;;5.60;99.90;;;;;;4999052;28;20452;-89
2022/09/21 03:37:25;;;;;;;8.10;7.23;;;5.70;99.90;;;;;;5002867;28;20525;-89
2022/09/21 03:39:50;;;;;;;7.60;6.77;;;5.80;99.90;;;;;;5001328;28;20442;-89
2022/09/21 03:42:16;;;;;;;6.93;6.23;;;5.80;99.90;;;;;;5000001;28;20188;-88
2022/09/21 03:44:41;;;;;;;6.77;6.17;;;5.70;99.90;;;;;;5001836;28;20201;-87
2022/09/21 03:47:07;;;;;;;6.43;5.40;;;5.70;99.90;;;;;;4999418;28;20194;-88
2022/09/21 03:49:51;;;;;;;7.10;6.40;;;5.80;99.90;;;;;;4999825;28;20292;-87
2022/09/21 03:52:16;;;;;;;7.43;6.60;;;5.80;99.90;;;;;;4996491;28;20186;-87
2022/09/21 03:54:42;;;;;;;8.70;6.77;;;5.90;99.90;;;;;;4998314;28;20868;-87
2022/09/21 03:57:07;;;;;;;7.10;6.40;;;5.90;99.90;;;;;;4996586;28;20639;-88
2022/09/21 03:59:34;;;;;;;7.07;6.37;;;5.90;99.90;;;;;;5000195;28;20724;-88
2022/09/21 04:01:59;;;;;;;8.43;6.73;;;5.80;99.90;;;;;;4999143;28;20185;-88
2022/09/21 04:04:25;;;;;;;9.07;6.57;;;5.70;99.90;;;;;;4997835;28;20469;-87
2022/09/21 04:06:51;;;;;;;9.30;5.70;;;5.50;99.90;;;;;;5017069;28;20681;-88
2022/09/21 04:09:16;;;;;;;7.50;5.80;;;5.60;99.90;;;;;;5015826;28;20184;-90
2022/09/21 04:11:44;;;;;;;11.57;5.40;;;5.50;99.90;;;;;;5000577;28;20231;-87
2022/09/21 04:14:10;;;;;;;5.40;4.50;;;5.40;99.90;;;;;;4999870;28;20938;-88
2022/09/21 04:16:36;;;;;;;6.43;4.93;;;5.30;99.90;;;;;;5000899;28;20947;-88
2022/09/21 04:19:02;;;;;;;5.77;5.17;;;5.30;99.90;;;;;;5014313;28;20453;-88
2022/09/21 04:21:27;;;;;;;6.80;5.67;;;5.30;99.90;;;;;;4996266;28;20188;-89
2022/09/21 04:23:53;;;;;;;6.30;5.10;;;5.30;99.90;;;;;;4989329;28;20406;-87
2022/09/21 04:26:26;;;;;;;8.80;5.57;;;5.40;99.90;;;;;;4983203;28;20379;-89
2022/09/21 04:28:52;;;;;;;6.90;5.33;;;5.40;99.90;;;;;;4983536;28;20287;-90
2022/09/21 04:31:18;;;;;;;5.00;4.50;;;5.40;99.90;;;;;;4982236;28;20442;-91
2022/09/21 04:33:49;;;;;;;6.20;5.60;;;5.30;99.90;;;;;;4989364;28;20478;-91
2022/09/21 04:36:16;;;;;;;5.83;5.33;;;5.30;99.90;;;;;;4986610;28;20218;-91
2022/09/21 04:38:42;;;;;;;6.40;4.93;;;5.20;99.90;;;;;;4976407;28;21399;-88
2022/09/21 04:41:07;;;;;;;11.97;4.80;;;5.20;99.90;;;;;;4982958;28;20431;-89
2022/09/21 04:43:33;;;;;;;8.00;5.90;;;5.10;99.90;;;;;;4982914;28;21162;-88
2022/09/21 04:46:04;;;;;;;6.57;5.97;;;4.90;99.90;;;;;;4978865;28;20881;-88
2022/09/21 04:48:29;;;;;;;6.50;5.90;;;4.90;99.90;;;;;;5005644;28;20507;-89
2022/09/21 04:50:55;;;;;;;8.37;7.57;;;4.90;99.90;;;;;;4989965;28;21224;-87
2022/09/21 04:53:21;;;;;;;8.10;7.17;;;4.90;99.90;;;;;;4983805;28;20208;-88
2022/09/21 04:55:46;;;;;;;6.57;5.97;;;5.00;99.90;;;;;;4980968;28;20275;-88
2022/09/21 04:58:12;;;;;;;7.83;6.87;;;5.00;99.90;;;;;;4998786;28;20269;-89
2022/09/21 05:00:37;;;;;;;6.50;5.90;;;4.80;99.90;;;;;;4989798;28;20275;-88
2022/09/21 05:03:03;;;;;;;5.47;4.97;;;4.80;99.90;;;;;;4984802;28;20245;-86
2022/09/21 05:05:31;;;;;;;5.40;4.90;;;4.90;99.90;;;;;;5001045;28;20676;-89
2022/09/21 05:07:57;;;;;;;5.30;4.80;;;4.90;99.90;;;;;;4981400;28;20269;-88
2022/09/21 05:10:24;;;;;;;5.03;4.63;;;4.80;99.90;;;;;;4973322;28;20440;-89
2022/09/21 05:12:50;;;;;;;5.50;5.00;;;4.90;99.90;;;;;;4986335;28;20258;-89
2022/09/21 05:15:19;;;;;;;5.30;4.90;;;4.90;99.90;;;;;;4984123;28;20489;-89
2022/09/21 05:17:45;;;;;;;5.73;5.23;;;4.90;99.90;;;;;;5002913;28;20447;-86
2022/09/21 05:20:11;;;;;;;5.73;5.23;;;4.90;99.90;;;;;;5001405;28;21034;-90
2022/09/21 05:22:39;;;;;;;4.63;4.23;;;4.90;99.90;;;;;;4988722;28;20493;-90
2022/09/21 05:25:05;;;;;;;5.20;4.77;;;4.90;99.90;;;;;;4983128;28;20215;-90
2022/09/21 05:27:31;;;;;;;5.90;5.13;;;5.00;99.90;;;;;;4984549;28;20443;-90
2022/09/21 05:29:57;;;;;;;7.83;7.10;;;5.00;99.90;;;;;;5007815;28;20446;-93
2022/09/21 05:32:51;;;;;;;15.03;13.43;;;4.80;99.90;;;;;;4991743;28;20188;-90
2022/09/21 05:35:16;;;;;;;10.20;9.20;;;4.80;99.90;;;;;;4991263;28;20454;-89
2022/09/21 05:37:44;;;;;;;12.57;11.27;;;4.80;99.90;;;;;;4984510;28;20439;-88
2022/09/21 05:40:11;;;;;;;8.93;8.03;;;4.90;99.90;;;;;;5001200;28;20181;-88
2022/09/21 05:42:37;;;;;;;9.77;8.83;;;4.90;99.90;;;;;;4986896;28;20447;-88
2022/09/21 05:45:03;;;;;;;7.93;7.13;;;5.00;99.90;;;;;;4987473;28;20443;-88
2022/09/21 05:48:08;;;;;;;5.37;4.97;;;5.10;99.90;;;;;;5001806;28;20460;-88
2022/09/21 05:51:10;;;;;;;7.40;5.10;;;5.20;99.90;;;;;;4997957;28;20446;-89
2022/09/21 05:53:47;;;;;;;4.90;4.30;;;5.20;99.90;;;;;;4979923;28;20476;-89
2022/09/21 05:56:41;;;;;;;9.33;5.53;;;5.20;99.90;;;;;;4985382;28;20447;-89
2022/09/21 05:59:54;;;;;;;5.37;4.97;;;5.30;99.90;;;;;;5006456;28;20851;-90
2022/09/21 06:02:38;;;;;;;6.03;5.43;;;5.40;99.90;;;;;;4999055;28;21149;-89
2022/09/21 06:05:10;;;;;;;6.87;5.17;;;5.60;99.90;;;;;;5006689;28;20501;-89
2022/09/21 06:07:35;;;;;;;5.90;4.83;;;5.80;99.90;;;;;;4987765;28;21496;-89
2022/09/21 06:10:01;;;;;;;6.17;5.60;;;5.90;99.90;;;;;;4989158;28;20446;-90
2022/09/21 06:12:27;;;;;;;7.30;5.67;;;5.90;99.90;;;;;;4984959;28;20193;-90
2022/09/21 06:15:10;;;;;;;6.63;6.00;;;5.90;99.90;;;;;;4985036;28;20459;-92
2022/09/21 06:17:36;;;;;;;7.93;6.10;;;5.90;99.90;;;;;;4989157;28;21066;-88
2022/09/21 06:20:02;;;;;;;7.10;6.37;;;5.90;99.90;;;;;;5006776;28;20504;-89
2022/09/21 06:22:27;;;;;;;6.97;4.90;;;6.00;99.90;;;;;;5000932;28;20574;-90
2022/09/21 06:24:53;;;;;;;7.30;5.77;;;6.00;99.90;;;;;;4975280;28;20794;-89
2022/09/21 06:27:19;;;;;;;5.40;4.90;;;6.10;99.90;;;;;;4981930;28;20180;-88
2022/09/21 06:29:47;;;;;;;8.30;6.37;;;6.00;99.90;;;;;;4996123;28;21058;-88
2022/09/21 06:32:15;;;;;;;6.40;5.77;;;6.10;99.90;;;;;;4996470;28;20274;-88
2022/09/21 06:34:49;;;;;;;5.97;5.30;;;6.10;99.90;;;;;;4984809;28;20459;-90
2022/09/21 06:37:17;;;;;;;7.27;5.80;;;6.10;99.90;;;;;;4984820;28;20531;-88
2022/09/21 06:39:43;;;;;;;10.00;5.90;;;6.20;99.90;;;;;;4987033;28;21027;-89
2022/09/21 06:42:08;;;;;;;9.90;6.93;;;6.30;99.90;;;;;;4984519;28;20735;-89
2022/09/21 06:44:36;;;;;;;8.60;6.90;;;6.40;99.90;;;;;;4997994;28;20197;-88
2022/09/21 06:47:02;;;;;;;7.97;6.80;;;6.30;99.90;;;;;;4985211;28;20285;-87
2022/09/21 06:49:27;;;;;;;6.80;6.10;;;6.30;99.90;;;;;;5001015;28;20435;-87
2022/09/21 06:51:54;;;;;;;7.57;6.87;;;6.40;99.90;;;;;;5007579;28;20266;-88
2022/09/21 06:54:20;;;;;;;7.10;6.40;;;6.50;99.90;;;;;;4983022;28;20234;-89
2022/09/21 06:56:46;;;;;;;8.20;6.70;;;6.70;99.90;;;;;;4986068;28;20448;-88
2022/09/21 06:59:11;;;;;;;7.43;6.63;;;6.80;99.90;;;;;;4986408;28;20813;-89
2022/09/21 07:01:37;;;;;;;7.27;6.00;;;6.90;99.90;;;;;;4988240;28;20182;-88
2022/09/21 07:04:08;;;;;;;6.27;5.30;;;7.00;99.90;;;;;;4991768;28;22530;-89
2022/09/21 07:06:33;;;;;;;7.63;6.93;;;7.10;99.90;;;;;;5005077;28;20215;-89
2022/09/21 07:08:59;;;;;;;6.67;5.83;;;7.40;99.90;;;;;;5004530;28;21161;-89
2022/09/21 07:11:31;;;;;;;8.13;6.30;;;7.60;99.90;;;;;;4993778;28;20193;-88
2022/09/21 07:13:57;;;;;;;7.73;5.83;;;7.60;99.90;;;;;;4991699;28;20478;-88
2022/09/21 07:16:23;;;;;;;8.03;6.70;;;7.70;99.90;;;;;;5010844;28;20441;-89
2022/09/21 07:18:48;;;;;;;8.73;6.77;;;7.70;99.90;;;;;;4998737;28;20438;-89
2022/09/21 07:21:15;;;;;;;8.07;7.10;;;7.80;99.90;;;;;;4997836;28;20434;-87
2022/09/21 07:23:41;;;;;;;13.20;7.30;;;8.00;99.90;;;;;;5010145;28;20744;-88
2022/09/21 07:26:15;;;;;;;8.40;7.60;;;8.20;99.90;;;;;;4999079;28;20512;-88
2022/09/21 07:28:49;;;;;;;10.57;7.57;;;8.40;99.90;;;;;;4996483;28;20593;-88
2022/09/21 07:31:16;;;;;;;7.93;7.07;;;8.50;99.90;;;;;;5012534;28;20442;-89
2022/09/21 07:33:43;;;;;;;6.60;5.87;;;8.70;99.90;;;;;;4994803;28;21045;-89
2022/09/21 07:36:10;;;;;;;6.20;5.50;;;8.90;99.90;;;;;;5012569;28;20435;-89
2022/09/21 07:38:38;;;;;;;6.10;5.50;;;9.20;99.90;;;;;;4997153;28;20438;-89
2022/09/21 07:41:04;;;;;;;6.40;5.80;;;9.30;99.90;;;;;;5007263;28;21834;-89
2022/09/21 07:43:29;;;;;;;7.57;5.37;;;9.30;99.90;;;;;;4991342;28;21276;-89
2022/09/21 07:45:55;;;;;;;7.40;6.07;;;9.40;99.90;;;;;;4999858;28;20565;-88
2022/09/21 07:48:27;;;;;;;6.60;6.00;;;9.30;99.90;;;;;;4996820;28;20215;-89
2022/09/21 07:51:06;;;;;;;6.70;6.10;;;9.30;99.90;;;;;;5012637;28;20271;-88
2022/09/21 07:53:33;;;;;;;6.73;5.83;;;9.50;99.90;;;;;;4984978;28;20475;-88
2022/09/21 07:56:04;;;;;;;6.67;5.53;;;9.50;99.90;;;;;;4996894;28;20453;-89
2022/09/21 08:01:15;;;;;;;9.43;5.57;;;10.00;99.90;;;;;;5014040;28;20470;-89
2022/09/21 08:03:40;;;;;;;6.30;4.20;;;10.20;99.90;;;;;;4996370;28;20462;-88
2022/09/21 08:06:06;;;;;;;6.17;5.60;;;10.30;99.90;;;;;;4996781;28;20594;-88
2022/09/21 08:08:32;;;;;;;5.10;4.63;;;10.50;99.90;;;;;;4995691;28;20232;-88
2022/09/21 08:11:05;;;;;;;5.10;4.60;;;10.60;99.90;;;;;;4993631;28;21012;-90
2022/09/21 08:13:31;;;;;;;4.53;4.13;;;10.80;99.90;;;;;;4993774;28;20243;-88
2022/09/21 08:16:01;;;;;;;5.50;4.10;;;10.90;99.90;;;;;;4992295;28;21125;-89
2022/09/21 08:18:30;;;;;;;3.73;3.43;;;11.00;99.90;;;;;;5003342;28;21043;-89
2022/09/21 08:20:57;;;;;;;4.70;4.00;;;11.20;99.90;;;;;;5015016;28;20432;-88
2022/09/21 08:23:24;;;;;;;5.20;3.87;;;11.50;99.90;;;;;;4995454;28;20780;-88
2022/09/21 08:25:50;;;;;;;3.80;3.40;;;11.60;99.90;;;;;;4998848;28;20879;-89
2022/09/21 08:28:17;;;;;;;4.40;3.80;;;11.70;99.90;;;;;;4996586;28;20461;-88
2022/09/21 08:30:42;;;;;;;6.40;3.97;;;11.80;99.90;;;;;;4994985;28;20220;-89
2022/09/21 08:33:08;;;;;;;3.73;3.43;;;11.90;99.90;;;;;;4998897;28;20561;-89
2022/09/21 08:35:35;;;;;;;4.90;4.20;;;12.00;99.90;;;;;;5010787;28;20222;-90
2022/09/21 08:38:00;;;;;;;4.43;4.03;;;12.00;99.90;;;;;;5014207;28;20676;-88
2022/09/21 08:40:26;;;;;;;4.70;4.23;;;12.00;99.90;;;;;;4999225;28;20435;-87
2022/09/21 08:43:17;;;;;;;4.60;4.20;;;12.10;99.90;;;;;;4994915;28;20641;-88
2022/09/21 08:45:50;;;;;;;4.37;3.97;;;12.10;99.90;;;;;;4992806;28;20185;-89
2022/09/21 08:48:28;;;;;;;5.10;4.60;;;12.30;99.90;;;;;;4994920;28;20435;-90
2022/09/21 08:50:59;;;;;;;5.20;4.80;;;12.50;99.90;;;;;;5000090;28;20431;-90
2022/09/21 08:53:31;;;;;;;5.40;4.87;;;12.60;99.90;;;;;;4995380;28;20461;-90
2022/09/21 08:55:57;;;;;;;8.50;4.97;;;12.70;99.90;;;;;;5010464;28;20509;-90
2022/09/21 08:58:25;;;;;;;5.23;4.63;;;12.80;99.90;;;;;;4993092;28;20443;-90
2022/09/21 09:01:24;;;;;;;4.70;3.90;;;13.10;99.90;;;;;;4992855;28;20180;-90
2022/09/21 09:03:59;;;;;;;4.70;3.60;;;13.30;99.90;;;;;;4994828;28;20478;-90
2022/09/21 09:07:02;;;;;;;4.73;3.40;;;13.50;99.90;;;;;;5016998;28;20446;-91
2022/09/21 09:09:46;;;;;;;3.77;3.47;;;13.90;99.90;;;;;;5004690;28;20432;-90
2022/09/21 09:12:28;;;;;;;3.30;3.10;;;13.80;99.90;;;;;;5010377;28;20451;-89
2022/09/21 09:15:12;;;;;;;3.50;3.07;;;13.90;99.90;;;;;;4996319;28;20456;-90
2022/09/21 09:18:11;;;;;;;4.43;3.50;;;13.90;99.90;;;;;;5008198;28;20558;-90
2022/09/21 09:21:00;;;;;;;7.40;2.80;;;14.10;99.90;;;;;;5013477;28;20445;-91
2022/09/21 09:23:40;;;;;;;5.07;3.17;;;14.40;99.90;;;;;;5004843;28;20981;-90
2022/09/21 09:26:19;;;;;;;4.60;2.47;;;14.50;99.90;;;;;;4991004;28;21123;-88
2022/09/21 09:29:13;;;;;;;4.07;3.00;;;14.60;99.90;;;;;;5009546;28;20446;-89
2022/09/21 09:32:19;;;;;;;2.63;2.43;;;14.70;99.90;;;;;;4985845;28;20601;-90
2022/09/21 09:35:24;;;;;;;3.70;2.30;;;14.80;99.90;;;;;;4993732;28;20483;-89
2022/09/21 09:37:57;;;;;;;2.30;2.10;;;14.90;99.90;;;;;;4991553;28;20508;-89
2022/09/21 09:40:52;;;;;;;2.53;2.27;;;14.90;99.90;;;;;;5012423;28;20581;-89
2022/09/21 09:44:00;;;;;;;3.00;2.20;;;15.10;99.90;;;;;;5012194;28;20485;-89
2022/09/21 09:46:43;;;;;;;2.20;2.10;;;15.20;99.90;;;;;;4997138;28;20798;-88
2022/09/21 09:49:08;;;;;;;3.07;2.40;;;15.20;99.90;;;;;;5009287;28;20438;-89
2022/09/21 09:51:36;;;;;;;2.50;2.30;;;15.40;99.90;;;;;;5001953;28;20459;-90
2022/09/21 09:54:16;;;;;;;2.37;2.17;;;15.50;99.90;;;;;;4995465;28;20490;-90
2022/09/21 09:56:42;;;;;;;3.70;1.97;;;15.80;99.90;;;;;;4996521;28;20434;-90
2022/09/21 09:59:30;;;;;;;3.03;2.40;;;16.10;99.90;;;;;;5007231;28;20447;-90
2022/09/21 10:02:06;;;;;;;3.53;2.63;;;15.80;99.90;;;;;;4994780;28;20447;-88
2022/09/21 10:04:33;;;;;;;3.97;2.70;;;15.80;99.90;;;;;;4993730;28;20839;-87
2022/09/21 10:06:59;;;;;;;3.17;2.33;;;15.50;99.90;;;;;;4993981;28;20458;-86
2022/09/21 10:09:31;;;;;;;2.17;2.00;;;15.60;99.90;;;;;;4993152;28;20440;-88
2022/09/21 10:12:17;;;;;;;2.00;1.60;;;15.60;99.90;;;;;;4993613;28;20930;-87
2022/09/21 10:14:52;;;;;;;2.13;1.70;;;16.40;99.90;;;;;;4995401;28;20656;-87
2022/09/21 10:17:19;;;;;;;2.33;1.67;;;16.60;99.90;;;;;;4997056;28;20474;-88
2022/09/21 10:19:45;;;;;;;1.43;1.07;;;16.50;99.40;;;;;;5002487;28;20434;-87
2022/09/21 10:22:16;;;;;;;1.37;1.27;;;16.40;99.50;;;;;;5008851;28;20431;-87
2022/09/21 10:24:49;;;;;;;1.53;1.40;;;15.70;99.90;;;;;;4995295;28;20430;-87
2022/09/21 10:27:18;;;;;;;4.00;1.57;;;15.90;99.80;;;;;;4996950;28;20495;-87
2022/09/21 10:29:48;;;;;;;2.83;1.40;;;16.70;99.90;;;;;;5008477;28;20441;-87
2022/09/21 10:32:29;;;;;;;2.30;1.13;;;16.60;99.10;;;;;;4993427;28;21382;-87
2022/09/21 10:35:07;;;;;;;1.57;1.30;;;16.90;98.70;;;;;;4998976;28;20446;-86
2022/09/21 10:37:41;;;;;;;1.23;1.03;;;17.20;98.30;;;;;;4996848;28;20529;-89
2022/09/21 10:40:19;;;;;;;0.70;0.70;;;17.20;99.70;;;;;;4998847;28;22904;-88
2022/09/21 10:42:47;;;;;;;2.43;0.83;;;17.60;98.40;;;;;;4994171;28;21546;-88
2022/09/21 10:45:24;;;;;;;1.50;0.97;;;17.30;97.40;;;;;;4995573;28;20533;-88
2022/09/21 10:48:05;;;;;;;0.70;0.70;;;16.70;98.10;;;;;;5001889;28;20441;-88
2022/09/21 10:50:39;;;;;;;1.93;0.87;;;16.60;99.10;;;;;;5012479;28;20484;-87
2022/09/21 10:53:30;;;;;;;1.50;0.80;;;17.10;98.50;;;;;;5001488;28;20553;-87
2022/09/21 10:56:06;;;;;;;2.47;1.00;;;17.50;97.10;;;;;;4998849;28;20451;-88
2022/09/21 10:58:33;;;;;;;0.67;0.67;;;17.60;96.50;;;;;;4999673;28;20472;-88
2022/09/21 11:01:20;;;;;;;1.63;1.40;;;17.90;97.60;;;;;;4995099;28;20472;-88
2022/09/21 11:04:04;;;;;;;0.97;0.87;;;17.90;95.90;;;;;;5001354;28;20526;-88
2022/09/21 11:06:37;;;;;;;2.73;1.07;;;18.10;95.10;;;;;;4998667;28;20443;-87
2022/09/21 11:09:07;;;;;;;0.90;0.90;;;17.70;96.50;;;;;;4995603;28;20577;-88
2022/09/21 11:11:52;;;;;;;1.93;1.20;;;17.90;98.20;;;;;;5013128;28;20485;-88
2022/09/21 11:14:39;;;;;;;1.43;1.10;;;17.80;94.70;;;;;;4998670;28;21027;-88
2022/09/21 11:17:24;;;;;;;0.77;0.67;;;16.90;95.90;;;;;;5000329;28;20455;-87
2022/09/21 11:19:56;;;;;;;0.77;0.77;;;16.20;96.40;;;;;;5000664;28;20431;-88
2022/09/21 11:22:40;;;;;;;1.20;0.70;;;17.00;96.20;;;;;;4997727;28;20450;-88
2022/09/21 11:25:41;;;;;;;1.27;0.80;;;17.40;96.00;;;;;;5011210;28;20900;-88
2022/09/21 11:28:28;;;;;;;1.57;0.97;;;16.30;97.10;;;;;;4995217;28;20461;-88
2022/09/21 11:30:57;;;;;;;1.80;0.70;;;15.90;97.40;;;;;;5000009;28;20569;-88
2022/09/21 11:33:49;;;;;;;1.03;0.93;;;15.40;98.70;;;;;;4996640;28;20468;-87
2022/09/21 11:36:15;;;;;;;0.80;0.80;;;15.30;97.70;;;;;;5016075;28;20869;-88
2022/09/21 11:39:18;;;;;;;3.63;1.10;;;15.20;97.20;;;;;;5003590;28;20525;-87
2022/09/21 11:42:26;;;;;;;0.97;0.80;;;15.00;97.20;;;;;;4919925;28;20188;-87
2022/09/21 11:44:54;;;;;;;1.20;0.80;;;15.30;98.90;;;;;;4998314;28;20443;-87
2022/09/21 11:47:38;;;;;;;1.73;0.90;;;16.40;97.30;;;;;;4995372;28;20443;-88
2022/09/21 11:50:19;;;;;;;1.33;0.63;;;16.50;96.00;;;;;;5008746;28;21003;-88
2022/09/21 11:52:56;;;;;;;1.17;0.80;;;16.90;95.10;;;;;;5016772;28;20470;-88
2022/09/21 11:55:53;;;;;;;0.80;0.67;;;17.40;94.40;;;;;;4995667;28;20478;-89
2022/09/21 11:58:39;;;;;;;1.23;1.00;;;17.90;93.20;;;;;;5011768;28;20538;-88
2022/09/21 12:01:10;;;;;;;1.13;0.70;;;17.50;94.00;;;;;;5015697;28;20455;-86
2022/09/21 12:03:57;;;;;;;1.70;1.30;;;17.60;94.30;;;;;;5007715;28;20479;-88
2022/09/21 12:06:31;;;;;;;1.30;1.00;;;17.20;93.40;;;;;;5010899;28;21009;-86
2022/09/21 12:09:38;;;;;;;1.70;0.80;;;17.00;95.40;;;;;;4998942;28;20825;-87
2022/09/21 12:12:09;;;;;;;0.93;0.70;;;17.50;94.80;;;;;;4925758;29;20446;-88
2022/09/21 12:15:01;;;;;;;1.20;0.70;;;18.10;92.80;;;;;;4934558;28;20478;-88
2022/09/21 12:17:54;;;;;;;0.57;0.57;;;18.30;91.30;;;;;;4938302;28;20898;-87
2022/09/21 12:20:43;;;;;;;0.80;0.60;;;18.60;90.80;;;;;;4989447;28;20800;-87
2022/09/21 12:23:38;;;;;;;0.60;0.50;;;18.70;90.50;;;;;;4996382;28;20450;-88
2022/09/21 12:26:05;;;;;;;0.53;0.50;;;18.80;91.20;;;;;;4996583;28;20526;-88
2022/09/21 12:28:39;;;;;;;1.43;0.80;;;19.20;91.30;;;;;;4995835;28;20443;-89
2022/09/21 12:31:24;;;;;;;1.27;0.80;;;19.40;91.10;;;;;;5011574;28;20438;-88
2022/09/21 12:34:02;;;;;;;0.70;0.70;;;19.60;90.70;;;;;;5004851;28;20479;-86
2022/09/21 12:37:03;;;;;;;1.57;0.70;;;19.50;85.00;;;;;;5012497;28;20442;-87
2022/09/21 12:39:38;;;;;;;1.37;0.80;;;19.80;87.10;;;;;;4995718;28;20443;-86
2022/09/21 12:42:15;;;;;;;2.60;0.70;;;20.10;91.70;;;;;;4989833;28;20442;-87
2022/09/21 12:45:03;;;;;;;1.03;0.83;;;20.00;91.80;;;;;;4993542;28;20449;-88
2022/09/21 12:47:50;;;;;;;1.27;0.97;;;19.60;92.40;;;;;;4997982;28;20447;-88
2022/09/21 12:50:40;;;;;;;0.97;0.80;;;19.50;91.40;;;;;;5012428;28;22150;-89
2022/09/21 12:53:13;;;;;;;1.00;0.70;;;18.40;93.20;;;;;;4989191;28;20596;-88
2022/09/21 12:56:09;;;;;;;1.80;1.10;;;17.80;93.40;;;;;;5016748;28;20496;-89
2022/09/21 12:59:05;;;;;;;0.87;0.80;;;17.40;93.70;;;;;;5014147;28;20442;-87
2022/09/21 13:01:47;;;;;;;1.87;1.20;;;18.10;93.80;;;;;;4997458;28;20451;-87
2022/09/21 13:04:37;;;;;;;0.73;0.73;;;18.60;92.30;;;;;;4999137;28;20451;-87
2022/09/21 13:07:26;;;;;;;1.00;0.80;;;18.90;93.40;;;;;;5014474;28;20451;-88
2022/09/21 13:09:52;;;;;;;1.23;0.80;;;19.30;90.80;;;;;;5014341;28;20520;-87
2022/09/21 13:12:40;;;;;;;1.50;0.93;;;19.10;91.90;;;;;;5009628;28;20440;-87
2022/09/21 13:15:23;;;;;;;0.90;0.90;;;19.20;91.00;;;;;;4990803;28;20449;-87
2022/09/21 13:18:01;;;;;;;1.47;1.00;;;18.90;91.70;;;;;;4999836;28;20548;-86
2022/09/21 13:20:35;;;;;;;1.00;0.63;;;18.70;91.30;;;;;;5011467;28;20452;-87
2022/09/21 13:23:02;;;;;;;1.03;0.97;;;18.90;90.10;;;;;;5009745;28;20439;-87
2022/09/21 13:25:36;;;;;;;1.83;1.10;;;19.20;91.20;;;;;;5011824;28;20440;-87
2022/09/21 13:28:10;;;;;;;0.87;0.80;;;19.40;90.20;;;;;;4996344;28;20477;-88
2022/09/21 13:31:14;;;;;;;0.80;0.70;;;18.70;88.50;;;;;;5013508;28;20558;-89
2022/09/21 13:34:00;;;;;;;1.37;0.80;;;17.90;92.00;;;;;;4997716;28;20491;-87